createdAt,value
2022-09-15T00:00:45.574Z,16.41
2022-09-15T00:03:13.261Z,16.38
2022-09-15T00:05:40.929Z,16.36
2022-09-15T00:08:08.392Z,16.47
2022-09-15T00:10:36.377Z,16.39
2022-09-15T00:13:04.211Z,16.45
2022-09-15T00:15:31.616Z,16.44
2022-09-15T00:17:58.922Z,16.39
2022-09-15T00:20:26.304Z,16.46
2022-09-15T00:22:53.835Z,16.45
2022-09-15T00:25:21.191Z,16.49
2022-09-15T00:27:48.608Z,16.50
2022-09-15T00:30:15.943Z,16.51
2022-09-15T00:32:43.795Z,16.52
2022-09-15T00:35:11.056Z,16.47
2022-09-15T00:37:38.439Z,16.51
2022-09-15T00:40:06.117Z,16.59
2022-09-15T00:42:34.100Z,16.63
2022-09-15T00:45:01.973Z,16.53
2022-09-15T00:47:39.049Z,16.52
2022-09-15T00:50:11.498Z,16.55
2022-09-15T00:52:58.176Z,16.54
2022-09-15T00:55:27.126Z,16.59
2022-09-15T00:57:59.534Z,16.62
2022-09-15T01:03:12.882Z,16.63
2022-09-15T01:05:45.311Z,16.73
2022-09-15T01:08:20.879Z,16.68
2022-09-15T01:10:48.253Z,16.58
2022-09-15T01:13:15.618Z,16.50
2022-09-15T01:15:55.164Z,16.43
2022-09-15T01:21:38.921Z,16.42
2022-09-15T01:24:25.098Z,16.40
2022-09-15T01:27:30.949Z,16.47
2022-09-15T01:30:08.760Z,16.49
2022-09-15T01:33:04.166Z,16.50
2022-09-15T01:35:36.758Z,16.52
2022-09-15T01:38:06.534Z,16.61
2022-09-15T01:40:42.017Z,16.67
2022-09-15T01:43:09.478Z,16.69
2022-09-15T01:45:36.880Z,16.68
2022-09-15T01:48:04.593Z,16.79
2022-09-15T01:50:37.284Z,16.69
2022-09-15T01:53:05.894Z,16.65
2022-09-15T01:55:40.846Z,16.68
2022-09-15T01:58:08.219Z,16.73
2022-09-15T02:00:37.022Z,16.68
2022-09-15T02:03:37.766Z,16.69
2022-09-15T02:06:07.318Z,16.75
2022-09-15T02:08:36.921Z,16.79
2022-09-15T02:11:07.369Z,16.78
2022-09-15T02:13:54.286Z,16.75
2022-09-15T02:16:22.456Z,16.80
2022-09-15T02:18:56.409Z,16.85
2022-09-15T02:21:29.811Z,16.80
2022-09-15T02:23:59.004Z,16.84
2022-09-15T02:26:26.849Z,16.78
2022-09-15T02:28:54.347Z,16.79
2022-09-15T02:31:22.735Z,16.79
2022-09-15T02:33:55.088Z,16.76
2022-09-15T02:36:22.467Z,16.79
2022-09-15T02:38:52.419Z,16.80
2022-09-15T02:41:20.196Z,16.76
2022-09-15T02:43:47.936Z,16.80
2022-09-15T02:46:15.971Z,16.71
2022-09-15T02:48:43.440Z,16.79
2022-09-15T02:51:10.694Z,16.70
2022-09-15T02:53:39.020Z,16.78
2022-09-15T02:56:06.680Z,16.79
2022-09-15T02:58:34.508Z,16.64
2022-09-15T03:01:05.238Z,16.68
2022-09-15T03:03:32.896Z,16.77
2022-09-15T03:06:16.690Z,16.84
2022-09-15T03:08:49.302Z,16.86
2022-09-15T03:11:17.224Z,16.74
2022-09-15T03:13:44.667Z,17.04
2022-09-15T03:16:12.693Z,16.94
2022-09-15T03:18:40.495Z,16.84
2022-09-15T03:21:08.669Z,16.84
2022-09-15T03:23:36.111Z,16.81
2022-09-15T03:26:03.599Z,16.69
2022-09-15T03:28:30.971Z,16.92
2022-09-15T03:30:58.343Z,16.81
2022-09-15T03:33:26.099Z,16.94
2022-09-15T03:35:53.441Z,16.96
2022-09-15T03:38:20.822Z,16.92
2022-09-15T03:40:57.496Z,16.99
2022-09-15T03:43:25.007Z,16.93
2022-09-15T03:45:52.429Z,16.86
2022-09-15T03:48:19.897Z,16.97
2022-09-15T03:50:47.252Z,16.95
2022-09-15T03:53:14.747Z,16.86
2022-09-15T03:55:42.071Z,16.80
2022-09-15T03:58:09.907Z,16.87
2022-09-15T04:00:37.325Z,16.79
2022-09-15T04:03:04.653Z,16.75
2022-09-15T04:05:33.000Z,16.85
2022-09-15T04:08:00.779Z,16.94
2022-09-15T04:10:29.494Z,17.00
2022-09-15T04:12:56.967Z,16.87
2022-09-15T04:15:24.316Z,16.89
2022-09-15T04:17:52.193Z,16.71
2022-09-15T04:20:19.611Z,16.90
2022-09-15T04:22:47.174Z,16.88
2022-09-15T04:25:14.527Z,17.01
2022-09-15T04:27:42.272Z,16.91
2022-09-15T04:30:09.878Z,16.80
2022-09-15T04:32:37.456Z,16.83
2022-09-15T04:35:05.178Z,16.78
2022-09-15T04:37:33.506Z,16.66
2022-09-15T04:40:01.438Z,16.77
2022-09-15T04:42:29.121Z,16.91
2022-09-15T04:44:56.511Z,16.80
2022-09-15T04:47:23.937Z,16.86
2022-09-15T04:49:51.414Z,16.96
2022-09-15T04:52:18.874Z,17.13
2022-09-15T04:54:46.245Z,17.27
2022-09-15T04:57:13.557Z,17.48
2022-09-15T04:59:41.092Z,17.62
2022-09-15T05:02:08.441Z,17.72
2022-09-15T05:04:35.939Z,17.69
2022-09-15T05:07:03.300Z,17.75
2022-09-15T05:09:31.168Z,17.82
2022-09-15T05:11:59.177Z,18.02
2022-09-15T05:14:26.661Z,18.02
2022-09-15T05:16:55.279Z,17.96
2022-09-15T05:19:22.659Z,18.00
2022-09-15T05:21:49.936Z,18.12
2022-09-15T05:24:17.490Z,18.24
2022-09-15T05:26:44.775Z,18.38
2022-09-15T05:29:12.108Z,18.50
2022-09-15T05:31:39.590Z,18.75
2022-09-15T05:34:07.450Z,18.82
2022-09-15T05:36:34.816Z,18.94
2022-09-15T05:39:02.270Z,18.99
2022-09-15T05:41:29.689Z,19.06
2022-09-15T05:43:57.281Z,19.03
2022-09-15T05:46:27.740Z,18.90
2022-09-15T05:48:55.752Z,18.94
2022-09-15T05:51:23.346Z,19.12
2022-09-15T05:53:51.101Z,19.18
2022-09-15T05:56:18.637Z,19.15
2022-09-15T05:58:46.578Z,19.10
2022-09-15T06:01:20.003Z,19.42
2022-09-15T06:03:48.105Z,19.69
2022-09-15T06:06:15.529Z,19.94
2022-09-15T06:08:48.282Z,19.93
2022-09-15T06:11:17.297Z,20.18
2022-09-15T06:13:44.655Z,20.06
2022-09-15T06:16:12.956Z,19.93
2022-09-15T06:18:41.013Z,20.05
2022-09-15T06:21:09.514Z,20.04
2022-09-15T06:23:37.166Z,20.16
2022-09-15T06:26:05.925Z,20.22
2022-09-15T06:28:33.974Z,20.55
2022-09-15T06:31:16.035Z,20.33
2022-09-15T06:33:44.233Z,20.46
2022-09-15T06:36:12.227Z,20.41
2022-09-15T06:38:39.909Z,20.44
2022-09-15T06:41:07.435Z,20.30
2022-09-15T06:43:35.111Z,20.41
2022-09-15T06:46:04.119Z,20.66
2022-09-15T06:48:32.402Z,20.79
2022-09-15T06:51:00.500Z,20.91
2022-09-15T06:53:31.301Z,20.67
2022-09-15T06:56:05.418Z,20.85
2022-09-15T06:58:37.274Z,20.92
2022-09-15T07:01:05.777Z,20.82
2022-09-15T07:03:33.292Z,21.00
2022-09-15T07:06:00.848Z,20.86
2022-09-15T07:08:28.274Z,20.97
2022-09-15T07:10:56.893Z,21.05
2022-09-15T07:13:24.322Z,21.42
2022-09-15T07:15:52.513Z,21.54
2022-09-15T07:18:19.904Z,21.59
2022-09-15T07:20:47.296Z,22.00
2022-09-15T07:23:14.932Z,22.17
2022-09-15T07:25:45.359Z,22.92
2022-09-15T07:28:16.640Z,23.76
2022-09-15T07:30:44.200Z,24.26
2022-09-15T07:33:12.943Z,24.27
2022-09-15T07:35:43.567Z,24.51
2022-09-15T07:38:11.203Z,24.82
2022-09-15T07:40:39.688Z,24.24
2022-09-15T07:43:07.124Z,25.12
2022-09-15T07:45:35.472Z,25.62
2022-09-15T07:48:03.061Z,24.95
2022-09-15T07:50:30.435Z,24.83
2022-09-15T07:52:58.044Z,24.40
2022-09-15T07:55:25.558Z,24.25
2022-09-15T07:57:56.721Z,23.72
2022-09-15T08:00:24.871Z,23.69
2022-09-15T08:02:52.496Z,23.36
2022-09-15T08:05:20.429Z,23.76
2022-09-15T08:07:48.147Z,24.01
2022-09-15T08:10:17.011Z,24.54
2022-09-15T08:12:44.411Z,25.95
2022-09-15T08:15:11.684Z,27.44
2022-09-15T08:17:39.367Z,26.95
2022-09-15T08:20:07.236Z,26.26
2022-09-15T08:22:36.776Z,25.30
2022-09-15T08:25:04.461Z,24.79
2022-09-15T08:27:32.255Z,25.82
2022-09-15T08:29:59.691Z,26.24
2022-09-15T08:32:27.181Z,25.52
2022-09-15T08:34:54.590Z,26.03
2022-09-15T08:37:24.040Z,25.48
2022-09-15T08:39:52.229Z,25.26
2022-09-15T08:42:19.856Z,25.15
2022-09-15T08:44:52.040Z,25.47
2022-09-15T08:47:25.698Z,25.00
2022-09-15T08:50:08.200Z,24.53
2022-09-15T08:52:40.677Z,25.23
2022-09-15T08:55:34.219Z,25.73
2022-09-15T08:58:01.726Z,25.51
2022-09-15T09:00:29.144Z,25.79
2022-09-15T09:02:56.631Z,25.48
2022-09-15T09:05:34.455Z,25.31
2022-09-15T09:08:09.735Z,25.14
2022-09-15T09:10:39.935Z,24.91
2022-09-15T09:13:22.741Z,24.63
2022-09-15T09:16:16.570Z,24.56
2022-09-15T09:18:59.436Z,24.28
2022-09-15T09:21:31.058Z,24.23
2022-09-15T09:24:08.039Z,24.07
2022-09-15T09:26:36.854Z,23.99
2022-09-15T09:29:20.656Z,23.94
2022-09-15T09:31:49.243Z,23.88
2022-09-15T09:34:20.683Z,23.85
2022-09-15T09:36:52.650Z,23.79
2022-09-15T09:39:20.083Z,23.80
2022-09-15T09:41:47.378Z,23.60
2022-09-15T09:44:14.811Z,23.58
2022-09-15T09:46:42.489Z,23.57
2022-09-15T09:49:16.908Z,23.31
2022-09-15T09:51:57.362Z,23.17
2022-09-15T09:54:27.362Z,23.08
2022-09-15T09:56:55.678Z,22.90
2022-09-15T09:59:41.465Z,22.96
2022-09-15T10:02:11.714Z,22.77
2022-09-15T10:04:39.970Z,22.65
2022-09-15T10:07:08.148Z,22.54
2022-09-15T10:09:35.671Z,22.11
2022-09-15T10:12:04.227Z,21.96
2022-09-15T10:14:33.513Z,21.71
2022-09-15T10:17:02.355Z,21.68
2022-09-15T10:19:34.145Z,21.57
2022-09-15T10:22:01.697Z,21.59
2022-09-15T10:24:36.726Z,21.55
2022-09-15T10:27:27.699Z,21.49
2022-09-15T10:29:55.764Z,21.58
2022-09-15T10:32:25.523Z,21.57
2022-09-15T10:35:07.134Z,21.55
2022-09-15T10:37:43.996Z,21.41
2022-09-15T10:40:22.209Z,21.29
2022-09-15T10:42:49.692Z,21.04
2022-09-15T10:45:22.990Z,20.82
2022-09-15T10:47:50.510Z,20.77
2022-09-15T10:50:24.006Z,20.61
2022-09-15T10:53:10.733Z,20.54
2022-09-15T10:55:53.248Z,20.51
2022-09-15T10:58:30.152Z,20.38
2022-09-15T11:00:59.942Z,20.36
2022-09-15T11:03:31.981Z,20.19
2022-09-15T11:06:38.198Z,20.11
2022-09-15T11:09:08.766Z,20.09
2022-09-15T11:11:48.728Z,20.11
2022-09-15T11:14:34.786Z,20.06
2022-09-15T11:17:10.234Z,19.98
2022-09-15T11:19:43.862Z,19.92
2022-09-15T11:22:14.081Z,19.86
2022-09-15T11:24:43.128Z,19.86
2022-09-15T11:27:16.629Z,19.84
2022-09-15T11:29:47.109Z,19.77
2022-09-15T11:32:24.916Z,19.66
2022-09-15T11:34:54.401Z,19.72
2022-09-15T11:37:23.460Z,19.74
2022-09-15T11:39:58.662Z,19.75
2022-09-15T11:42:27.153Z,19.80
2022-09-15T11:44:54.630Z,19.79
2022-09-15T11:47:33.176Z,19.74
2022-09-15T11:50:00.520Z,19.76
2022-09-15T11:52:30.827Z,19.78
2022-09-15T11:55:03.996Z,19.82
2022-09-15T11:57:36.751Z,19.79
2022-09-15T12:00:07.174Z,19.78
2022-09-15T12:02:42.508Z,19.75
2022-09-15T12:05:10.047Z,19.71
2022-09-15T12:08:04.202Z,19.63
2022-09-15T12:10:41.578Z,19.63
2022-09-15T12:13:13.050Z,19.72
2022-09-15T12:15:40.547Z,19.74
2022-09-15T12:18:38.093Z,19.74
2022-09-15T12:21:18.806Z,19.71
2022-09-15T12:23:46.169Z,19.65
2022-09-15T12:26:16.516Z,19.79
2022-09-15T12:28:46.832Z,19.73
2022-09-15T12:31:15.436Z,19.79
2022-09-15T12:33:42.870Z,19.74
2022-09-15T12:36:28.821Z,19.78
2022-09-15T12:38:56.310Z,19.80
2022-09-15T12:41:23.631Z,19.83
2022-09-15T12:43:58.489Z,19.84
2022-09-15T12:46:25.858Z,19.82
2022-09-15T12:48:54.331Z,19.83
2022-09-15T12:51:22.685Z,19.88
2022-09-15T12:53:51.131Z,19.87
2022-09-15T12:56:23.555Z,19.92
2022-09-15T12:58:51.078Z,19.94
2022-09-15T13:01:18.855Z,20.04
2022-09-15T13:03:48.936Z,20.08
2022-09-15T13:06:34.228Z,20.12
2022-09-15T13:09:06.311Z,20.19
2022-09-15T13:11:34.889Z,20.30
2022-09-15T13:14:08.343Z,20.34
2022-09-15T13:16:43.935Z,20.41
2022-09-15T13:19:20.766Z,20.47
2022-09-15T13:21:59.153Z,20.51
2022-09-15T13:24:50.401Z,20.52
2022-09-15T13:27:26.848Z,20.60
2022-09-15T13:30:13.253Z,20.60
2022-09-15T13:32:53.129Z,20.64
2022-09-15T13:35:39.895Z,20.66
2022-09-15T13:38:29.117Z,20.76
2022-09-15T13:40:58.357Z,20.83
2022-09-15T13:43:44.653Z,20.82
2022-09-15T13:46:32.798Z,20.83
2022-09-15T13:49:02.873Z,20.87
2022-09-15T13:51:32.787Z,20.92
2022-09-15T13:54:02.748Z,20.92
2022-09-15T13:56:32.309Z,20.91
2022-09-15T13:59:08.397Z,20.94
2022-09-15T14:01:42.635Z,20.90
2022-09-15T14:04:10.160Z,20.91
2022-09-15T14:06:38.633Z,20.89
2022-09-15T14:09:11.937Z,20.99
2022-09-15T14:14:28.801Z,20.85
2022-09-15T14:16:59.189Z,20.75
2022-09-15T14:19:35.553Z,20.64
2022-09-15T14:22:25.813Z,20.58
2022-09-15T14:27:59.322Z,20.36
2022-09-15T14:30:36.932Z,20.36
2022-09-15T14:33:17.319Z,20.16
2022-09-15T14:35:47.243Z,20.04
2022-09-15T14:38:24.479Z,20.00
2022-09-15T14:40:57.853Z,19.87
2022-09-15T14:43:30.653Z,19.83
2022-09-15T14:46:38.411Z,19.87
2022-09-15T14:49:21.111Z,19.83
2022-09-15T14:51:55.989Z,19.87
2022-09-15T14:54:46.994Z,19.84
2022-09-15T14:57:18.081Z,19.88
2022-09-15T14:59:57.715Z,19.90
2022-09-15T15:02:56.951Z,19.86
2022-09-15T15:05:34.495Z,19.87
2022-09-15T15:08:30.689Z,19.78
2022-09-15T15:11:20.494Z,19.84
2022-09-15T15:13:57.297Z,19.91
2022-09-15T15:16:27.315Z,19.84
2022-09-15T15:19:45.636Z,19.69
2022-09-15T15:22:25.224Z,19.72
2022-09-15T15:24:56.541Z,19.72
2022-09-15T15:27:50.899Z,19.61
2022-09-15T15:30:52.948Z,19.59
2022-09-15T15:33:25.827Z,19.59
2022-09-15T15:36:12.680Z,19.58
2022-09-15T15:38:52.131Z,19.53
2022-09-15T15:41:27.281Z,19.52
2022-09-15T15:44:22.286Z,19.59
2022-09-15T15:59:23.343Z,19.39
2022-09-15T16:01:51.606Z,19.42
2022-09-15T16:04:19.061Z,19.38
2022-09-15T16:06:46.488Z,19.46
2022-09-15T16:09:13.912Z,19.47
2022-09-15T16:11:42.246Z,19.45
2022-09-15T16:14:11.300Z,19.48
2022-09-15T16:16:39.737Z,19.34
2022-09-15T16:19:08.786Z,19.43
2022-09-15T16:21:40.011Z,19.40
2022-09-15T16:24:11.792Z,19.40
2022-09-15T16:26:39.554Z,19.47
2022-09-15T16:29:07.111Z,19.52
2022-09-15T16:31:35.382Z,19.44
2022-09-15T16:34:03.021Z,19.42
2022-09-15T16:36:31.126Z,19.34
2022-09-15T16:38:59.017Z,19.31
2022-09-15T16:41:27.121Z,19.33
2022-09-15T16:43:56.007Z,19.37
2022-09-15T16:46:23.693Z,19.34
2022-09-15T16:48:51.201Z,19.37
2022-09-15T16:51:28.845Z,19.35
2022-09-15T16:53:57.394Z,19.29
2022-09-15T16:56:24.890Z,19.28
2022-09-15T16:58:57.447Z,19.27
2022-09-15T17:01:27.243Z,19.27
2022-09-15T17:03:56.037Z,19.21
2022-09-15T17:06:23.646Z,19.26
2022-09-15T17:08:51.245Z,19.24
2022-09-15T17:11:19.931Z,19.23
2022-09-15T17:13:47.576Z,19.27
2022-09-15T17:16:15.836Z,19.21
2022-09-15T17:18:43.484Z,19.14
2022-09-15T17:21:11.944Z,19.09
2022-09-15T17:23:39.918Z,19.13
2022-09-15T17:26:10.742Z,19.17
2022-09-15T17:28:38.549Z,19.09
2022-09-15T17:31:06.878Z,19.12
2022-09-15T17:33:34.469Z,19.10
2022-09-15T17:36:02.079Z,19.08
2022-09-15T17:38:29.803Z,19.09
2022-09-15T17:40:57.268Z,19.02
2022-09-15T17:43:25.512Z,19.02
2022-09-15T17:45:52.980Z,19.06
2022-09-15T17:48:20.663Z,18.99
2022-09-15T17:50:48.869Z,19.08
2022-09-15T17:53:17.261Z,19.11
2022-09-15T17:55:44.810Z,18.89
2022-09-15T17:58:12.428Z,18.88
2022-09-15T18:00:40.503Z,18.94
2022-09-15T18:03:28.022Z,18.79
2022-09-15T18:05:56.319Z,18.85
2022-09-15T18:08:23.740Z,18.77
2022-09-15T18:10:52.336Z,18.88
2022-09-15T18:13:20.794Z,18.75
2022-09-15T18:15:51.316Z,18.65
2022-09-15T18:18:19.934Z,18.73
2022-09-15T18:20:47.630Z,18.75
2022-09-15T18:23:15.931Z,18.69
2022-09-15T18:25:43.610Z,18.62
2022-09-15T18:28:12.455Z,18.62
2022-09-15T18:30:41.021Z,18.73
2022-09-15T18:33:16.968Z,18.69
2022-09-15T18:35:44.779Z,18.66
2022-09-15T18:38:12.290Z,18.60
2022-09-15T18:40:44.156Z,18.58
2022-09-15T18:43:12.156Z,18.58
2022-09-15T18:45:40.134Z,18.65
2022-09-15T18:48:11.994Z,18.55
2022-09-15T18:50:40.808Z,18.59
2022-09-15T18:53:08.272Z,18.59
2022-09-15T18:55:35.625Z,18.61
2022-09-15T18:58:03.108Z,18.64
2022-09-15T19:00:31.814Z,18.64
2022-09-15T19:03:00.606Z,18.63
2022-09-15T19:05:28.431Z,18.69
2022-09-15T19:07:55.836Z,18.73
2022-09-15T19:10:24.015Z,18.65
2022-09-15T19:12:51.871Z,18.64
2022-09-15T19:15:23.624Z,18.63
2022-09-15T19:17:51.415Z,18.60
2022-09-15T19:20:18.782Z,18.61
2022-09-15T19:22:46.555Z,18.61
2022-09-15T19:25:13.950Z,18.61
2022-09-15T19:27:41.450Z,18.68
2022-09-15T19:30:10.284Z,18.67
2022-09-15T19:32:38.751Z,18.75
2022-09-15T19:35:06.628Z,18.60
2022-09-15T19:37:36.142Z,18.66
2022-09-15T19:40:06.998Z,18.67
2022-09-15T19:42:34.893Z,18.65
2022-09-15T19:45:02.418Z,18.78
2022-09-15T19:47:30.051Z,18.74
2022-09-15T19:49:58.038Z,18.79
2022-09-15T19:52:25.385Z,18.81
2022-09-15T19:54:52.804Z,18.95
2022-09-15T19:57:21.354Z,18.92
2022-09-15T19:59:49.019Z,18.88
2022-09-15T20:02:17.123Z,18.96
2022-09-15T20:07:31.198Z,18.98
2022-09-15T20:09:58.919Z,18.87
2022-09-15T20:12:26.890Z,18.84
2022-09-15T20:14:54.506Z,18.80
2022-09-15T20:17:21.941Z,18.77
2022-09-15T20:19:49.707Z,18.81
2022-09-15T20:22:17.269Z,18.80
2022-09-15T20:24:44.795Z,18.78
2022-09-15T20:27:12.434Z,18.85
2022-09-15T20:29:40.496Z,18.83
2022-09-15T20:34:53.065Z,18.79
2022-09-15T20:37:22.368Z,18.75
2022-09-15T20:39:51.553Z,18.83
2022-09-15T20:42:18.968Z,18.91
2022-09-15T20:44:46.456Z,18.81
2022-09-15T20:47:14.157Z,18.83
2022-09-15T20:49:41.687Z,18.87
2022-09-15T20:52:09.088Z,18.84
2022-09-15T20:54:36.460Z,18.88
2022-09-15T20:57:03.978Z,18.86
2022-09-15T20:59:31.660Z,18.86
2022-09-15T21:01:59.067Z,18.94
2022-09-15T21:04:26.467Z,18.93
2022-09-15T21:06:53.841Z,18.94
2022-09-15T21:09:21.370Z,18.98
2022-09-15T21:11:53.286Z,19.12
2022-09-15T21:14:20.924Z,19.10
2022-09-15T21:16:48.535Z,19.12
2022-09-15T21:19:16.225Z,19.18
2022-09-15T21:21:43.804Z,19.22
2022-09-15T21:24:11.205Z,19.28
2022-09-15T21:27:02.423Z,19.15
2022-09-15T21:29:30.096Z,19.17
2022-09-15T21:31:57.926Z,19.14
2022-09-15T21:34:26.465Z,19.08
2022-09-15T21:36:53.972Z,19.10
2022-09-15T21:39:21.631Z,18.96
2022-09-15T21:41:49.036Z,19.05
2022-09-15T21:44:18.554Z,18.98
2022-09-15T21:46:47.100Z,18.95
2022-09-15T21:49:14.806Z,18.93
2022-09-15T21:51:42.427Z,18.86
2022-09-15T21:54:10.179Z,18.84
2022-09-15T21:56:38.528Z,18.86
2022-09-15T21:59:05.948Z,18.89
2022-09-15T22:01:33.389Z,18.91
2022-09-15T22:04:05.138Z,18.88
2022-09-15T22:06:34.427Z,18.89
2022-09-15T22:09:03.043Z,18.88
2022-09-15T22:11:30.588Z,18.92
2022-09-15T22:13:58.019Z,18.97
2022-09-15T22:16:25.682Z,18.99
2022-09-15T22:18:53.183Z,18.94
2022-09-15T22:21:21.347Z,19.03
2022-09-15T22:23:49.046Z,18.99
2022-09-15T22:26:17.496Z,18.92
2022-09-15T22:28:44.941Z,18.89
2022-09-15T22:31:12.993Z,18.88
2022-09-15T22:33:43.229Z,18.84
2022-09-15T22:36:11.378Z,18.82
2022-09-15T22:38:38.831Z,18.82
2022-09-15T22:41:10.548Z,18.82
2022-09-15T22:43:39.128Z,18.78
2022-09-15T22:46:07.029Z,18.81
2022-09-15T22:48:34.498Z,18.85
2022-09-15T22:51:01.882Z,18.75
2022-09-15T22:53:29.530Z,18.68
2022-09-15T22:56:06.248Z,18.73
2022-09-15T22:58:34.661Z,18.71
2022-09-15T23:01:05.683Z,18.81
2022-09-15T23:03:33.522Z,18.81
2022-09-15T23:06:00.976Z,18.78
2022-09-15T23:08:29.750Z,18.74
2022-09-15T23:11:01.368Z,18.58
2022-09-15T23:13:28.884Z,18.67
2022-09-15T23:15:56.973Z,18.73
2022-09-15T23:18:24.568Z,18.67
2022-09-15T23:21:10.503Z,18.65
2022-09-15T23:23:39.825Z,18.66
2022-09-15T23:26:10.544Z,18.65
2022-09-15T23:28:39.232Z,18.64
2022-09-15T23:31:07.094Z,18.61
2022-09-15T23:33:35.611Z,18.58
2022-09-15T23:36:03.555Z,18.54
2022-09-15T23:38:31.208Z,18.60
2022-09-15T23:40:59.043Z,18.50
2022-09-15T23:43:26.699Z,18.51
2022-09-15T23:45:54.086Z,18.50
2022-09-15T23:48:22.595Z,18.51
2022-09-15T23:50:50.100Z,18.56
2022-09-15T23:53:18.292Z,18.49
2022-09-15T23:55:47.692Z,18.46
2022-09-15T23:58:15.127Z,18.51
